sensor_id;sensor_type;location;lat;lon;timestamp;temperature;humidity
1091;DHT22;534;48.704;9.122;2023-04-03T03:01:02;5.90;71.00
1091;DHT22;534;48.704;9.122;2023-04-03T03:03:29;5.70;70.90
1091;DHT22;534;48.704;9.122;2023-04-03T03:06:03;5.60;71.10
1091;DHT22;534;48.704;9.122;2023-04-03T03:08:29;5.60;71.60
1091;DHT22;534;48.704;9.122;2023-04-03T03:10:56;5.60;71.50
1091;DHT22;534;48.704;9.122;2023-04-03T03:13:23;5.50;71.60
1091;DHT22;534;48.704;9.122;2023-04-03T03:15:50;5.30;71.80
1091;DHT22;534;48.704;9.122;2023-04-03T03:18:18;5.20;72.20
1091;DHT22;534;48.704;9.122;2023-04-03T03:20:45;5.10;72.20
1091;DHT22;534;48.704;9.122;2023-04-03T03:23:11;5.00;72.80
1091;DHT22;534;48.704;9.122;2023-04-03T03:25:39;4.90;73.50
1091;DHT22;534;48.704;9.122;2023-04-03T03:28:06;5.00;73.60
1091;DHT22;534;48.704;9.122;2023-04-03T03:30:33;5.10;72.90
1091;DHT22;534;48.704;9.122;2023-04-03T03:33:00;5.10;73.20
1091;DHT22;534;48.704;9.122;2023-04-03T03:35:28;5.20;73.10
1091;DHT22;534;48.704;9.122;2023-04-03T03:37:55;5.20;72.60
1091;DHT22;534;48.704;9.122;2023-04-03T03:40:21;5.20;72.80
1091;DHT22;534;48.704;9.122;2023-04-03T03:42:48;5.10;72.70
1091;DHT22;534;48.704;9.122;2023-04-03T03:45:15;5.00;73.20
1091;DHT22;534;48.704;9.122;2023-04-03T03:47:41;5.00;73.60
1091;DHT22;534;48.704;9.122;2023-04-03T03:50:09;5.00;73.50
1091;DHT22;534;48.704;9.122;2023-04-03T03:52:37;4.90;73.80
1091;DHT22;534;48.704;9.122;2023-04-03T03:55:04;4.90;73.80
1091;DHT22;534;48.704;9.122;2023-04-03T03:57:31;5.00;74.00
1091;DHT22;534;48.704;9.122;2023-04-03T03:59:58;5.00;73.50
1091;DHT22;534;48.704;9.122;2023-04-03T04:02:24;5.10;73.90
1091;DHT22;534;48.704;9.122;2023-04-03T04:04:51;5.20;73.50
1091;DHT22;534;48.704;9.122;2023-04-03T04:07:18;5.30;72.90
1091;DHT22;534;48.704;9.122;2023-04-03T04:09:46;5.10;72.90
1091;DHT22;534;48.704;9.122;2023-04-03T04:12:12;5.20;73.00
1091;DHT22;534;48.704;9.122;2023-04-03T04:14:39;5.10;72.70
1091;DHT22;534;48.704;9.122;2023-04-03T04:17:06;5.20;72.90
1091;DHT22;534;48.704;9.122;2023-04-03T04:19:32;5.30;72.70
1091;DHT22;534;48.704;9.122;2023-04-03T04:21:59;5.30;72.50
1091;DHT22;534;48.704;9.122;2023-04-03T04:24:26;5.30;72.30
1091;DHT22;534;48.704;9.122;2023-04-03T04:26:54;5.50;72.20
1091;DHT22;534;48.704;9.122;2023-04-03T04:29:20;5.50;71.90
1091;DHT22;534;48.704;9.122;2023-04-03T04:31:47;5.30;72.00
1091;DHT22;534;48.704;9.122;2023-04-03T04:34:14;5.30;72.10
1091;DHT22;534;48.704;9.122;2023-04-03T04:36:41;5.30;72.00
1091;DHT22;534;48.704;9.122;2023-04-03T04:39:08;5.20;72.10
1091;DHT22;534;48.704;9.122;2023-04-03T04:41:34;5.10;72.10
1091;DHT22;534;48.704;9.122;2023-04-03T04:44:02;5.20;72.10
1091;DHT22;534;48.704;9.122;2023-04-03T04:46:29;5.20;72.00
1091;DHT22;534;48.704;9.122;2023-04-03T04:48:55;5.10;71.90
1091;DHT22;534;48.704;9.122;2023-04-03T04:51:22;5.10;71.80
1091;DHT22;534;48.704;9.122;2023-04-03T04:53:49;5.10;71.80
1091;DHT22;534;48.704;9.122;2023-04-03T04:56:15;5.20;71.50
1091;DHT22;534;48.704;9.122;2023-04-03T04:58:42;5.40;70.90
1091;DHT22;534;48.704;9.122;2023-04-03T05:01:11;5.20;70.30
1091;DHT22;534;48.704;9.122;2023-04-03T05:03:37;5.10;70.50
1091;DHT22;534;48.704;9.122;2023-04-03T05:06:04;5.00;70.80
1091;DHT22;534;48.704;9.122;2023-04-03T05:08:31;4.90;70.80
1091;DHT22;534;48.704;9.122;2023-04-03T05:10:58;5.00;70.80
1091;DHT22;534;48.704;9.122;2023-04-03T05:13:25;5.10;70.20
1091;DHT22;534;48.704;9.122;2023-04-03T05:15:51;5.10;69.70
1091;DHT22;534;48.704;9.122;2023-04-03T05:18:19;5.00;69.90
1091;DHT22;534;48.704;9.122;2023-04-03T05:20:48;5.00;69.10
1091;DHT22;534;48.704;9.122;2023-04-03T05:23:15;5.10;69.50
1091;DHT22;534;48.704;9.122;2023-04-03T05:25:42;5.20;69.20
1091;DHT22;534;48.704;9.122;2023-04-03T05:28:10;5.30;68.90
1091;DHT22;534;48.704;9.122;2023-04-03T05:30:37;5.10;68.40
1091;DHT22;534;48.704;9.122;2023-04-03T05:33:04;5.20;69.30
1091;DHT22;534;48.704;9.122;2023-04-03T05:35:32;5.30;68.70
1091;DHT22;534;48.704;9.122;2023-04-03T05:37:59;5.20;69.00
1091;DHT22;534;48.704;9.122;2023-04-03T05:40:26;5.20;68.90
1091;DHT22;534;48.704;9.122;2023-04-03T05:42:52;5.20;69.00
1091;DHT22;534;48.704;9.122;2023-04-03T05:45:19;5.10;68.90
1091;DHT22;534;48.704;9.122;2023-04-03T05:47:46;5.30;69.10
1091;DHT22;534;48.704;9.122;2023-04-03T05:50:13;5.40;68.40
1091;DHT22;534;48.704;9.122;2023-04-03T05:52:44;5.70;68.30
1091;DHT22;534;48.704;9.122;2023-04-03T05:55:11;5.90;66.80
1091;DHT22;534;48.704;9.122;2023-04-03T05:57:38;6.00;66.20
1091;DHT22;534;48.704;9.122;2023-04-03T06:00:07;6.20;66.20
1091;DHT22;534;48.704;9.122;2023-04-03T06:02:35;7.00;65.20
1091;DHT22;534;48.704;9.122;2023-04-03T06:05:04;7.70;62.40
1091;DHT22;534;48.704;9.122;2023-04-03T06:07:30;7.50;62.40
1091;DHT22;534;48.704;9.122;2023-04-03T06:09:58;7.10;63.30
1091;DHT22;534;48.704;9.122;2023-04-03T06:12:25;6.50;64.90
1091;DHT22;534;48.704;9.122;2023-04-03T06:14:54;6.30;66.00
1091;DHT22;534;48.704;9.122;2023-04-03T06:17:21;6.20;66.80
1091;DHT22;534;48.704;9.122;2023-04-03T06:19:47;6.00;67.10
1091;DHT22;534;48.704;9.122;2023-04-03T06:22:14;5.90;68.10
1091;DHT22;534;48.704;9.122;2023-04-03T06:24:41;5.80;68.40
1091;DHT22;534;48.704;9.122;2023-04-03T06:27:11;5.70;69.20
1091;DHT22;534;48.704;9.122;2023-04-03T06:29:37;5.80;68.90
1091;DHT22;534;48.704;9.122;2023-04-03T06:32:04;5.80;69.10
1091;DHT22;534;48.704;9.122;2023-04-03T06:34:31;5.70;69.60
1091;DHT22;534;48.704;9.122;2023-04-03T06:36:58;5.60;69.70
1091;DHT22;534;48.704;9.122;2023-04-03T06:39:25;5.50;70.80
1091;DHT22;534;48.704;9.122;2023-04-03T06:41:52;5.60;70.70
1091;DHT22;534;48.704;9.122;2023-04-03T06:44:20;5.70;70.50
1091;DHT22;534;48.704;9.122;2023-04-03T06:46:47;5.80;69.60
1091;DHT22;534;48.704;9.122;2023-04-03T06:49:14;5.70;68.90
1091;DHT22;534;48.704;9.122;2023-04-03T06:51:40;5.60;69.60
1091;DHT22;534;48.704;9.122;2023-04-03T06:54:07;5.40;69.70
1091;DHT22;534;48.704;9.122;2023-04-03T06:56:34;5.40;70.20
1091;DHT22;534;48.704;9.122;2023-04-03T06:59:01;5.30;70.70
1091;DHT22;534;48.704;9.122;2023-04-03T07:01:30;5.30;71.20
1091;DHT22;534;48.704;9.122;2023-04-03T07:03:57;5.20;71.30
1091;DHT22;534;48.704;9.122;2023-04-03T07:06:23;5.20;72.10
1091;DHT22;534;48.704;9.122;2023-04-03T07:08:52;5.30;72.20
1091;DHT22;534;48.704;9.122;2023-04-03T07:11:19;5.20;71.60
1091;DHT22;534;48.704;9.122;2023-04-03T07:13:46;5.20;71.80
1091;DHT22;534;48.704;9.122;2023-04-03T07:16:12;5.20;72.20
1091;DHT22;534;48.704;9.122;2023-04-03T07:18:40;5.10;71.80
1091;DHT22;534;48.704;9.122;2023-04-03T07:21:07;5.10;72.50
1091;DHT22;534;48.704;9.122;2023-04-03T07:23:34;5.20;72.40
1091;DHT22;534;48.704;9.122;2023-04-03T07:26:01;5.40;72.30
1091;DHT22;534;48.704;9.122;2023-04-03T07:28:27;5.50;71.40
1091;DHT22;534;48.704;9.122;2023-04-03T07:31:00;5.40;71.10
1091;DHT22;534;48.704;9.122;2023-04-03T07:33:27;5.50;71.00
1091;DHT22;534;48.704;9.122;2023-04-03T07:35:56;5.20;71.50
1091;DHT22;534;48.704;9.122;2023-04-03T07:38:23;5.10;72.10
1091;DHT22;534;48.704;9.122;2023-04-03T07:40:50;5.10;72.20
1091;DHT22;534;48.704;9.122;2023-04-03T07:43:18;5.00;72.50
1091;DHT22;534;48.704;9.122;2023-04-03T07:45:46;5.30;72.50
1091;DHT22;534;48.704;9.122;2023-04-03T07:48:15;5.30;72.70
1091;DHT22;534;48.704;9.122;2023-04-03T07:50:43;5.40;72.30
1091;DHT22;534;48.704;9.122;2023-04-03T07:53:11;5.30;72.00
1091;DHT22;534;48.704;9.122;2023-04-03T07:55:38;5.50;72.60
1091;DHT22;534;48.704;9.122;2023-04-03T07:58:08;5.60;72.00
1091;DHT22;534;48.704;9.122;2023-04-03T08:00:36;5.80;72.10
1091;DHT22;534;48.704;9.122;2023-04-03T08:03:03;6.00;71.10
1091;DHT22;534;48.704;9.122;2023-04-03T08:05:29;6.10;71.20
1091;DHT22;534;48.704;9.122;2023-04-03T08:07:56;6.30;70.60
1091;DHT22;534;48.704;9.122;2023-04-03T08:10:24;6.50;70.50
1091;DHT22;534;48.704;9.122;2023-04-03T08:12:51;6.60;69.10
1091;DHT22;534;48.704;9.122;2023-04-03T08:15:17;6.70;68.50
1091;DHT22;534;48.704;9.122;2023-04-03T08:17:44;6.60;69.20
1091;DHT22;534;48.704;9.122;2023-04-03T08:20:11;6.50;69.00
1091;DHT22;534;48.704;9.122;2023-04-03T08:22:38;6.50;68.30
1091;DHT22;534;48.704;9.122;2023-04-03T08:25:05;6.30;69.20
1091;DHT22;534;48.704;9.122;2023-04-03T08:27:33;6.20;70.40
1091;DHT22;534;48.704;9.122;2023-04-03T08:30:00;6.30;70.30
1091;DHT22;534;48.704;9.122;2023-04-03T08:32:27;6.40;69.20
1091;DHT22;534;48.704;9.122;2023-04-03T08:34:53;6.30;69.60
1091;DHT22;534;48.704;9.122;2023-04-03T08:37:20;6.20;69.80
1091;DHT22;534;48.704;9.122;2023-04-03T08:39:47;6.40;70.90
1091;DHT22;534;48.704;9.122;2023-04-03T08:42:17;6.40;70.90
1091;DHT22;534;48.704;9.122;2023-04-03T08:44:50;6.30;70.30
1091;DHT22;534;48.704;9.122;2023-04-03T08:47:23;6.30;70.10
1091;DHT22;534;48.704;9.122;2023-04-03T08:49:54;6.30;69.70
1091;DHT22;534;48.704;9.122;2023-04-03T08:52:27;6.30;69.50
1091;DHT22;534;48.704;9.122;2023-04-03T08:54:59;6.40;70.10
1091;DHT22;534;48.704;9.122;2023-04-03T08:57:29;6.50;69.50
1091;DHT22;534;48.704;9.122;2023-04-03T09:00:01;6.60;68.80
1091;DHT22;534;48.704;9.122;2023-04-03T09:02:33;6.70;68.50
1091;DHT22;534;48.704;9.122;2023-04-03T09:05:02;6.80;68.20
1091;DHT22;534;48.704;9.122;2023-04-03T09:07:35;6.90;67.90
1091;DHT22;534;48.704;9.122;2023-04-03T09:10:04;6.90;67.70
1091;DHT22;534;48.704;9.122;2023-04-03T09:12:34;6.90;68.00
1091;DHT22;534;48.704;9.122;2023-04-03T09:15:11;7.00;68.00
1091;DHT22;534;48.704;9.122;2023-04-03T09:17:49;7.00;68.00
1091;DHT22;534;48.704;9.122;2023-04-03T09:20:22;7.00;68.70
1091;DHT22;534;48.704;9.122;2023-04-03T09:22:52;7.10;67.00
1091;DHT22;534;48.704;9.122;2023-04-03T09:25:21;7.00;67.10
1091;DHT22;534;48.704;9.122;2023-04-03T09:27:48;6.90;68.40
1091;DHT22;534;48.704;9.122;2023-04-03T09:30:19;7.00;69.40
1091;DHT22;534;48.704;9.122;2023-04-03T09:32:49;7.00;69.10
1091;DHT22;534;48.704;9.122;2023-04-03T09:35:20;7.00;69.40
1091;DHT22;534;48.704;9.122;2023-04-03T09:37:49;6.80;69.30
1091;DHT22;534;48.704;9.122;2023-04-03T09:40:30;6.60;68.10
1091;DHT22;534;48.704;9.122;2023-04-03T09:42:59;6.50;66.20
1091;DHT22;534;48.704;9.122;2023-04-03T09:45:29;6.50;67.30
1091;DHT22;534;48.704;9.122;2023-04-03T09:48:15;6.50;67.60
1091;DHT22;534;48.704;9.122;2023-04-03T09:50:57;6.50;68.00
1091;DHT22;534;48.704;9.122;2023-04-03T09:53:33;6.50;67.80
1091;DHT22;534;48.704;9.122;2023-04-03T09:56:03;6.70;67.30
1091;DHT22;534;48.704;9.122;2023-04-03T09:58:31;6.80;67.30
1091;DHT22;534;48.704;9.122;2023-04-03T10:01:02;6.80;66.40
1091;DHT22;534;48.704;9.122;2023-04-03T10:03:31;6.70;64.90
1091;DHT22;534;48.704;9.122;2023-04-03T10:06:00;6.80;65.10
1091;DHT22;534;48.704;9.122;2023-04-03T10:08:29;6.90;64.60
1091;DHT22;534;48.704;9.122;2023-04-03T10:11:08;6.90;64.30
1091;DHT22;534;48.704;9.122;2023-04-03T10:13:36;7.00;64.80
1091;DHT22;534;48.704;9.122;2023-04-03T10:16:18;6.90;65.70
1091;DHT22;534;48.704;9.122;2023-04-03T10:18:48;7.20;67.50
1091;DHT22;534;48.704;9.122;2023-04-03T10:21:23;7.20;66.10
1091;DHT22;534;48.704;9.122;2023-04-03T10:24:01;7.10;65.60
1091;DHT22;534;48.704;9.122;2023-04-03T10:26:32;7.20;64.80
1091;DHT22;534;48.704;9.122;2023-04-03T10:29:10;7.30;65.30
1091;DHT22;534;48.704;9.122;2023-04-03T10:31:48;7.00;64.60
1091;DHT22;534;48.704;9.122;2023-04-03T10:34:21;6.90;65.60
1091;DHT22;534;48.704;9.122;2023-04-03T10:36:55;6.80;65.20
1091;DHT22;534;48.704;9.122;2023-04-03T10:39:30;7.00;64.60
1091;DHT22;534;48.704;9.122;2023-04-03T10:42:04;7.00;65.10
1091;DHT22;534;48.704;9.122;2023-04-03T10:44:40;7.10;64.50
1091;DHT22;534;48.704;9.122;2023-04-03T10:47:14;7.10;64.00
1091;DHT22;534;48.704;9.122;2023-04-03T10:49:51;7.10;63.70
1091;DHT22;534;48.704;9.122;2023-04-03T10:52:22;7.10;62.80
1091;DHT22;534;48.704;9.122;2023-04-03T10:54:56;7.10;67.00
1091;DHT22;534;48.704;9.122;2023-04-03T10:57:26;7.20;63.30
1091;DHT22;534;48.704;9.122;2023-04-03T10:59:57;7.00;63.60
1091;DHT22;534;48.704;9.122;2023-04-03T11:02:28;7.20;63.70
1091;DHT22;534;48.704;9.122;2023-04-03T11:05:00;7.00;64.10
1091;DHT22;534;48.704;9.122;2023-04-03T11:07:29;6.90;64.50
1091;DHT22;534;48.704;9.122;2023-04-03T11:10:02;6.80;63.60
1091;DHT22;534;48.704;9.122;2023-04-03T11:12:36;6.70;64.30
1091;DHT22;534;48.704;9.122;2023-04-03T11:15:05;6.60;63.50
1091;DHT22;534;48.704;9.122;2023-04-03T11:17:42;6.50;64.30
1091;DHT22;534;48.704;9.122;2023-04-03T11:20:17;6.40;65.10
1091;DHT22;534;48.704;9.122;2023-04-03T11:22:48;6.40;65.00
1091;DHT22;534;48.704;9.122;2023-04-03T11:25:19;6.40;65.30
1091;DHT22;534;48.704;9.122;2023-04-03T11:27:50;6.60;65.90
1091;DHT22;534;48.704;9.122;2023-04-03T11:30:23;6.80;65.30
1091;DHT22;534;48.704;9.122;2023-04-03T11:33:17;6.80;64.90
1091;DHT22;534;48.704;9.122;2023-04-03T11:35:51;6.70;64.60
1091;DHT22;534;48.704;9.122;2023-04-03T11:38:22;6.70;64.40
1091;DHT22;534;48.704;9.122;2023-04-03T11:40:51;6.60;64.50
1091;DHT22;534;48.704;9.122;2023-04-03T11:43:25;6.50;65.00
1091;DHT22;534;48.704;9.122;2023-04-03T11:45:57;6.60;64.50
1091;DHT22;534;48.704;9.122;2023-04-03T11:48:45;6.60;63.00
1091;DHT22;534;48.704;9.122;2023-04-03T11:51:39;6.40;63.40
1091;DHT22;534;48.704;9.122;2023-04-03T11:54:35;6.60;62.50
1091;DHT22;534;48.704;9.122;2023-04-03T12:06:50;6.80;60.00
1091;DHT22;534;48.704;9.122;2023-04-03T12:09:31;6.80;59.20
1091;DHT22;534;48.704;9.122;2023-04-03T12:12:00;6.90;60.40
1091;DHT22;534;48.704;9.122;2023-04-03T12:14:28;6.90;60.00
1091;DHT22;534;48.704;9.122;2023-04-03T12:16:56;6.90;62.30
1091;DHT22;534;48.704;9.122;2023-04-03T12:19:32;7.00;62.50
1091;DHT22;534;48.704;9.122;2023-04-03T12:22:15;7.10;61.90
1091;DHT22;534;48.704;9.122;2023-04-03T12:24:43;7.10;62.00
1091;DHT22;534;48.704;9.122;2023-04-03T12:27:32;7.00;62.00
1091;DHT22;534;48.704;9.122;2023-04-03T12:30:04;7.00;61.60
1091;DHT22;534;48.704;9.122;2023-04-03T12:32:58;7.00;63.20
1091;DHT22;534;48.704;9.122;2023-04-03T12:35:34;6.80;63.10
1091;DHT22;534;48.704;9.122;2023-04-03T12:38:33;6.70;63.80
1091;DHT22;534;48.704;9.122;2023-04-03T12:41:18;6.70;63.80
1091;DHT22;534;48.704;9.122;2023-04-03T12:43:54;6.90;63.50
1091;DHT22;534;48.704;9.122;2023-04-03T12:46:32;6.70;63.70
1091;DHT22;534;48.704;9.122;2023-04-03T12:49:02;6.90;64.10
1091;DHT22;534;48.704;9.122;2023-04-03T12:51:34;7.20;63.30
1091;DHT22;534;48.704;9.122;2023-04-03T12:54:13;7.40;62.30
1091;DHT22;534;48.704;9.122;2023-04-03T12:56:41;7.50;63.10
1091;DHT22;534;48.704;9.122;2023-04-03T12:59:15;7.60;61.40
1091;DHT22;534;48.704;9.122;2023-04-03T13:01:42;7.60;59.60
1091;DHT22;534;48.704;9.122;2023-04-03T13:04:10;7.40;59.60
1091;DHT22;534;48.704;9.122;2023-04-03T13:06:39;7.40;60.20
1091;DHT22;534;48.704;9.122;2023-04-03T13:09:19;7.40;61.10
1091;DHT22;534;48.704;9.122;2023-04-03T13:11:48;7.50;59.40
1091;DHT22;534;48.704;9.122;2023-04-03T13:14:18;7.70;58.40
1091;DHT22;534;48.704;9.122;2023-04-03T13:16:54;7.60;57.00
1091;DHT22;534;48.704;9.122;2023-04-03T13:19:23;7.40;58.10
1091;DHT22;534;48.704;9.122;2023-04-03T13:21:55;7.40;58.60
1091;DHT22;534;48.704;9.122;2023-04-03T13:24:25;7.60;58.40
1091;DHT22;534;48.704;9.122;2023-04-03T13:26:52;7.60;58.40
1091;DHT22;534;48.704;9.122;2023-04-03T13:29:23;7.70;57.20
1091;DHT22;534;48.704;9.122;2023-04-03T13:31:53;7.70;59.10
1091;DHT22;534;48.704;9.122;2023-04-03T13:34:22;7.80;59.20
1091;DHT22;534;48.704;9.122;2023-04-03T13:36:56;7.90;60.20
1091;DHT22;534;48.704;9.122;2023-04-03T13:39:27;8.30;58.40
1091;DHT22;534;48.704;9.122;2023-04-03T13:41:56;8.60;57.80
1091;DHT22;534;48.704;9.122;2023-04-03T13:44:31;8.90;56.80
1091;DHT22;534;48.704;9.122;2023-04-03T13:46:59;8.80;55.70
1091;DHT22;534;48.704;9.122;2023-04-03T13:49:32;8.60;57.50
1091;DHT22;534;48.704;9.122;2023-04-03T13:52:01;8.60;57.20
1091;DHT22;534;48.704;9.122;2023-04-03T13:54:33;8.20;56.10
1091;DHT22;534;48.704;9.122;2023-04-03T13:57:01;7.90;56.80
1091;DHT22;534;48.704;9.122;2023-04-03T13:59:29;7.80;57.30
1091;DHT22;534;48.704;9.122;2023-04-03T14:02:13;7.90;57.80
1091;DHT22;534;48.704;9.122;2023-04-03T14:04:49;8.00;57.90
1091;DHT22;534;48.704;9.122;2023-04-03T14:07:16;8.10;57.60
1091;DHT22;534;48.704;9.122;2023-04-03T14:09:46;8.00;56.90
1091;DHT22;534;48.704;9.122;2023-04-03T14:12:16;7.70;56.70
1091;DHT22;534;48.704;9.122;2023-04-03T14:14:52;7.70;56.90
1091;DHT22;534;48.704;9.122;2023-04-03T14:17:22;7.70;57.40
1091;DHT22;534;48.704;9.122;2023-04-03T14:19:50;8.00;57.10
1091;DHT22;534;48.704;9.122;2023-04-03T14:22:19;7.90;57.50
1091;DHT22;534;48.704;9.122;2023-04-03T14:24:47;7.90;56.90
1091;DHT22;534;48.704;9.122;2023-04-03T14:27:19;7.80;56.00
1091;DHT22;534;48.704;9.122;2023-04-03T14:29:46;7.80;55.50
1091;DHT22;534;48.704;9.122;2023-04-03T14:32:17;7.70;56.90
1091;DHT22;534;48.704;9.122;2023-04-03T14:34:44;7.60;56.70
1091;DHT22;534;48.704;9.122;2023-04-03T14:37:14;7.30;58.90
1091;DHT22;534;48.704;9.122;2023-04-03T14:39:42;7.30;58.60
1091;DHT22;534;48.704;9.122;2023-04-03T14:42:12;7.50;58.90
1091;DHT22;534;48.704;9.122;2023-04-03T14:44:39;7.50;59.30
1091;DHT22;534;48.704;9.122;2023-04-03T14:47:10;7.80;59.70
1091;DHT22;534;48.704;9.122;2023-04-03T14:49:38;7.80;58.60
1091;DHT22;534;48.704;9.122;2023-04-03T14:52:05;7.80;57.80
1091;DHT22;534;48.704;9.122;2023-04-03T14:54:31;7.70;58.10
1091;DHT22;534;48.704;9.122;2023-04-03T14:56:59;7.80;57.70
1091;DHT22;534;48.704;9.122;2023-04-03T14:59:26;8.10;57.40
1091;DHT22;534;48.704;9.122;2023-04-03T15:01:54;8.50;56.60
1091;DHT22;534;48.704;9.122;2023-04-03T15:04:21;9.50;53.20
1091;DHT22;534;48.704;9.122;2023-04-03T15:06:49;10.80;50.20
1091;DHT22;534;48.704;9.122;2023-04-03T15:09:19;11.60;47.50
1091;DHT22;534;48.704;9.122;2023-04-03T15:11:47;11.50;47.90
1091;DHT22;534;48.704;9.122;2023-04-03T15:14:17;11.00;48.80
1091;DHT22;534;48.704;9.122;2023-04-03T15:16:44;10.50;50.20
1091;DHT22;534;48.704;9.122;2023-04-03T15:19:11;9.80;50.80
1091;DHT22;534;48.704;9.122;2023-04-03T15:21:38;9.20;52.60
1091;DHT22;534;48.704;9.122;2023-04-03T15:24:08;8.80;53.80
1091;DHT22;534;48.704;9.122;2023-04-03T15:26:35;8.60;54.40
1091;DHT22;534;48.704;9.122;2023-04-03T15:29:03;8.40;53.70
1091;DHT22;534;48.704;9.122;2023-04-03T15:31:29;8.30;54.90
1091;DHT22;534;48.704;9.122;2023-04-03T15:33:56;8.20;55.30
1091;DHT22;534;48.704;9.122;2023-04-03T15:36:23;8.20;55.50
1091;DHT22;534;48.704;9.122;2023-04-03T15:38:50;8.20;55.00
1091;DHT22;534;48.704;9.122;2023-04-03T15:41:18;8.20;54.20
1091;DHT22;534;48.704;9.122;2023-04-03T15:43:45;8.10;54.80
1091;DHT22;534;48.704;9.122;2023-04-03T15:46:12;8.10;54.90
1091;DHT22;534;48.704;9.122;2023-04-03T15:48:40;8.00;55.10
1091;DHT22;534;48.704;9.122;2023-04-03T15:51:06;8.10;55.40
1091;DHT22;534;48.704;9.122;2023-04-03T15:53:33;8.10;54.40
1091;DHT22;534;48.704;9.122;2023-04-03T15:56:00;8.20;54.10
1091;DHT22;534;48.704;9.122;2023-04-03T15:58:28;8.40;53.60
1091;DHT22;534;48.704;9.122;2023-04-03T16:00:54;8.40;53.10
1091;DHT22;534;48.704;9.122;2023-04-03T16:03:21;8.30;53.50
1091;DHT22;534;48.704;9.122;2023-04-03T16:05:49;8.00;53.70
1091;DHT22;534;48.704;9.122;2023-04-03T16:08:16;7.80;54.30
1091;DHT22;534;48.704;9.122;2023-04-03T16:10:43;7.80;54.80
1091;DHT22;534;48.704;9.122;2023-04-03T16:13:11;7.90;54.50
1091;DHT22;534;48.704;9.122;2023-04-03T16:15:39;7.80;54.80
1091;DHT22;534;48.704;9.122;2023-04-03T16:18:07;7.90;54.50
1091;DHT22;534;48.704;9.122;2023-04-03T16:20:34;7.90;54.70
1091;DHT22;534;48.704;9.122;2023-04-03T16:23:01;7.90;53.80
1091;DHT22;534;48.704;9.122;2023-04-03T16:25:28;7.70;53.60
1091;DHT22;534;48.704;9.122;2023-04-03T16:27:56;7.80;54.30
1091;DHT22;534;48.704;9.122;2023-04-03T16:30:23;7.90;54.00
1091;DHT22;534;48.704;9.122;2023-04-03T16:32:51;7.90;53.70
1091;DHT22;534;48.704;9.122;2023-04-03T16:35:18;8.00;53.40
1091;DHT22;534;48.704;9.122;2023-04-03T16:37:45;7.90;53.20
1091;DHT22;534;48.704;9.122;2023-04-03T16:40:12;7.60;52.70
1091;DHT22;534;48.704;9.122;2023-04-03T16:42:39;7.50;53.10
1091;DHT22;534;48.704;9.122;2023-04-03T16:45:07;7.30;52.80
1091;DHT22;534;48.704;9.122;2023-04-03T16:47:33;7.10;53.20
1091;DHT22;534;48.704;9.122;2023-04-03T16:50:02;7.00;53.40
1091;DHT22;534;48.704;9.122;2023-04-03T16:52:29;7.10;53.50
1091;DHT22;534;48.704;9.122;2023-04-03T16:54:55;7.20;52.90
1091;DHT22;534;48.704;9.122;2023-04-03T16:57:24;7.20;52.80
1091;DHT22;534;48.704;9.122;2023-04-03T16:59:51;7.20;53.50
1091;DHT22;534;48.704;9.122;2023-04-03T17:02:18;7.30;53.60
1091;DHT22;534;48.704;9.122;2023-04-03T17:04:45;7.40;53.00
1091;DHT22;534;48.704;9.122;2023-04-03T17:07:13;7.50;53.10
1091;DHT22;534;48.704;9.122;2023-04-03T17:09:40;7.50;52.70
1091;DHT22;534;48.704;9.122;2023-04-03T17:12:06;7.40;52.80
1091;DHT22;534;48.704;9.122;2023-04-03T17:14:33;7.40;52.90
1091;DHT22;534;48.704;9.122;2023-04-03T17:17:00;7.50;52.70
1091;DHT22;534;48.704;9.122;2023-04-03T17:19:27;7.60;53.10
1091;DHT22;534;48.704;9.122;2023-04-03T17:21:54;7.70;53.60
1091;DHT22;534;48.704;9.122;2023-04-03T17:24:23;7.60;52.90
1091;DHT22;534;48.704;9.122;2023-04-03T17:26:49;7.60;52.90
1091;DHT22;534;48.704;9.122;2023-04-03T17:29:16;7.40;52.90
1091;DHT22;534;48.704;9.122;2023-04-03T17:31:43;7.20;53.30
1091;DHT22;534;48.704;9.122;2023-04-03T17:34:09;7.10;54.10
1091;DHT22;534;48.704;9.122;2023-04-03T17:36:38;7.10;54.00
1091;DHT22;534;48.704;9.122;2023-04-03T17:39:05;7.00;54.80
1091;DHT22;534;48.704;9.122;2023-04-03T17:41:34;6.90;55.20
1091;DHT22;534;48.704;9.122;2023-04-03T17:44:00;6.90;55.90
1091;DHT22;534;48.704;9.122;2023-04-03T17:46:27;6.90;55.20
1091;DHT22;534;48.704;9.122;2023-04-03T17:48:55;6.90;55.30
1091;DHT22;534;48.704;9.122;2023-04-03T17:51:24;6.80;55.50
1091;DHT22;534;48.704;9.122;2023-04-03T17:53:51;7.00;55.30
1091;DHT22;534;48.704;9.122;2023-04-03T17:56:19;7.20;55.20
1091;DHT22;534;48.704;9.122;2023-04-03T17:58:49;7.10;55.30
1091;DHT22;534;48.704;9.122;2023-04-03T18:01:18;7.20;55.20
1091;DHT22;534;48.704;9.122;2023-04-03T18:03:46;7.20;55.00
1091;DHT22;534;48.704;9.122;2023-04-03T18:06:14;7.20;55.20
1091;DHT22;534;48.704;9.122;2023-04-03T18:08:44;7.20;54.90
1091;DHT22;534;48.704;9.122;2023-04-03T18:11:11;7.20;54.90
1091;DHT22;534;48.704;9.122;2023-04-03T18:13:38;7.30;55.10
1091;DHT22;534;48.704;9.122;2023-04-03T18:16:07;7.30;54.80
1091;DHT22;534;48.704;9.122;2023-04-03T18:18:35;7.10;54.20
1091;DHT22;534;48.704;9.122;2023-04-03T18:21:02;7.00;54.90
1091;DHT22;534;48.704;9.122;2023-04-03T18:23:30;6.80;55.50
1091;DHT22;534;48.704;9.122;2023-04-03T18:25:58;6.80;55.60
1091;DHT22;534;48.704;9.122;2023-04-03T18:28:27;6.80;56.10
1091;DHT22;534;48.704;9.122;2023-04-03T18:30:54;6.80;55.90
1091;DHT22;534;48.704;9.122;2023-04-03T18:33:22;6.70;56.20
1091;DHT22;534;48.704;9.122;2023-04-03T18:35:49;6.80;56.10
1091;DHT22;534;48.704;9.122;2023-04-03T18:38:16;6.80;56.10
1091;DHT22;534;48.704;9.122;2023-04-03T18:40:43;6.80;56.30
1091;DHT22;534;48.704;9.122;2023-04-03T18:43:12;6.70;56.30
1091;DHT22;534;48.704;9.122;2023-04-03T18:45:39;6.80;56.20
1091;DHT22;534;48.704;9.122;2023-04-03T18:48:06;6.60;56.10
1091;DHT22;534;48.704;9.122;2023-04-03T18:50:34;6.50;56.50
1091;DHT22;534;48.704;9.122;2023-04-03T18:53:01;6.40;56.40
1091;DHT22;534;48.704;9.122;2023-04-03T18:55:27;6.30;57.20
1091;DHT22;534;48.704;9.122;2023-04-03T18:57:55;6.30;56.90
1091;DHT22;534;48.704;9.122;2023-04-03T19:00:22;6.40;56.80
1091;DHT22;534;48.704;9.122;2023-04-03T19:02:49;6.30;57.00
1091;DHT22;534;48.704;9.122;2023-04-03T19:05:16;6.40;56.90
1091;DHT22;534;48.704;9.122;2023-04-03T19:07:46;6.30;57.20
1091;DHT22;534;48.704;9.122;2023-04-03T19:10:15;6.30;56.90
1091;DHT22;534;48.704;9.122;2023-04-03T19:12:43;6.10;57.30
1091;DHT22;534;48.704;9.122;2023-04-03T19:15:11;6.10;57.40
1091;DHT22;534;48.704;9.122;2023-04-03T19:17:37;6.20;57.30
1091;DHT22;534;48.704;9.122;2023-04-03T19:20:05;6.20;57.10
1091;DHT22;534;48.704;9.122;2023-04-03T19:22:32;6.10;57.30
1091;DHT22;534;48.704;9.122;2023-04-03T19:25:00;6.10;57.30
1091;DHT22;534;48.704;9.122;2023-04-03T19:27:27;6.20;57.20
1091;DHT22;534;48.704;9.122;2023-04-03T19:29:54;6.20;56.60
1091;DHT22;534;48.704;9.122;2023-04-03T19:32:20;6.10;56.70
1091;DHT22;534;48.704;9.122;2023-04-03T19:34:47;6.10;56.60
1091;DHT22;534;48.704;9.122;2023-04-03T19:37:14;6.00;57.00
1091;DHT22;534;48.704;9.122;2023-04-03T19:39:41;5.90;56.80
1091;DHT22;534;48.704;9.122;2023-04-03T19:42:09;5.90;57.30
1091;DHT22;534;48.704;9.122;2023-04-03T19:44:36;6.00;57.10
1091;DHT22;534;48.704;9.122;2023-04-03T19:47:03;5.90;57.30
1091;DHT22;534;48.704;9.122;2023-04-03T19:49:30;6.00;57.30
1091;DHT22;534;48.704;9.122;2023-04-03T19:51:57;5.90;57.30
1091;DHT22;534;48.704;9.122;2023-04-03T19:54:24;5.70;57.30
1091;DHT22;534;48.704;9.122;2023-04-03T19:56:50;5.50;58.00